Time;durP1;ratioP1;P1;durP2;ratioP2;P2;SDS_P1;SDS_P2;PMS_P1;PMS_P2;Temp;Humidity;BMP_temperature;BMP_pressure;BME280_temperature;BME280_humidity;BME280_pressure;Samples;Min_cycle;Max_cycle;Signal;HPM_P1;HPM_P2
2022/04/08 00:00:33;;;;;;;6.45;1.00;;;8.50;99.90;;;;;;4989389;28;20399;-67
2022/04/08 00:02:58;;;;;;;8.73;1.10;;;8.40;99.90;;;;;;4988452;28;20494;-65
2022/04/08 00:05:24;;;;;;;7.45;1.10;;;8.40;99.90;;;;;;4988883;28;20034;-67
2022/04/08 00:07:50;;;;;;;9.15;1.25;;;8.30;99.90;;;;;;4989294;28;20038;-67
2022/04/08 00:10:15;;;;;;;6.55;1.20;;;8.30;99.90;;;;;;4988683;28;20034;-67
2022/04/08 00:12:41;;;;;;;7.03;0.85;;;8.20;99.90;;;;;;4988305;28;20057;-67
2022/04/08 00:15:07;;;;;;;3.25;0.80;;;8.30;99.90;;;;;;4988104;28;20476;-67
2022/04/08 00:17:33;;;;;;;5.85;0.80;;;8.20;99.90;;;;;;4988886;28;20077;-66
2022/04/08 00:19:59;;;;;;;6.43;0.75;;;8.30;99.90;;;;;;4989521;28;20042;-67
2022/04/08 00:22:25;;;;;;;5.72;0.90;;;8.20;99.90;;;;;;4988090;28;20045;-68
2022/04/08 00:24:50;;;;;;;4.30;0.80;;;8.20;99.90;;;;;;4988861;28;20034;-67
2022/04/08 00:27:16;;;;;;;10.02;0.90;;;8.20;99.90;;;;;;4987544;28;20030;-67
2022/04/08 00:29:42;;;;;;;6.38;0.90;;;8.20;99.90;;;;;;4987739;28;20037;-67
2022/04/08 00:32:07;;;;;;;6.63;1.52;;;8.10;99.90;;;;;;4987077;28;20038;-68
2022/04/08 00:34:33;;;;;;;8.48;1.00;;;8.10;99.90;;;;;;4989788;28;20062;-67
2022/04/08 00:36:59;;;;;;;9.60;1.40;;;8.10;99.90;;;;;;4986354;28;20103;-67
2022/04/08 00:39:25;;;;;;;8.82;0.98;;;8.00;99.90;;;;;;4988994;28;20038;-67
2022/04/08 00:41:50;;;;;;;9.45;1.45;;;8.10;99.90;;;;;;4988575;28;20772;-68
2022/04/08 00:44:16;;;;;;;6.85;1.00;;;8.00;99.90;;;;;;4988779;28;20104;-68
2022/04/08 00:46:43;;;;;;;7.28;0.90;;;7.90;99.90;;;;;;4987825;28;20034;-67
2022/04/08 00:49:09;;;;;;;4.40;0.60;;;8.00;99.90;;;;;;4988702;28;20078;-67
2022/04/08 00:51:35;;;;;;;4.53;1.42;;;8.00;99.90;;;;;;4987964;28;20026;-68
2022/04/08 00:54:04;;;;;;;6.85;1.13;;;7.90;99.90;;;;;;4987989;28;20068;-67
2022/04/08 00:56:31;;;;;;;6.25;0.70;;;8.00;99.90;;;;;;4986867;28;20114;-67
2022/04/08 00:58:57;;;;;;;3.10;0.90;;;8.00;99.90;;;;;;4989394;28;20129;-67
2022/04/08 01:01:24;;;;;;;7.15;1.17;;;8.00;99.90;;;;;;4985246;28;20022;-68
2022/04/08 01:03:52;;;;;;;5.13;0.68;;;7.90;99.90;;;;;;4989057;28;20042;-68
2022/04/08 01:06:21;;;;;;;9.05;0.90;;;7.90;99.90;;;;;;4986341;28;20030;-67
2022/04/08 01:08:49;;;;;;;5.20;1.02;;;7.90;99.90;;;;;;4989538;28;20548;-67
2022/04/08 01:11:15;;;;;;;7.35;1.13;;;7.90;99.90;;;;;;4986647;28;20037;-67
2022/04/08 01:13:41;;;;;;;9.10;1.10;;;7.90;99.90;;;;;;4988162;28;20050;-66
2022/04/08 01:16:08;;;;;;;8.13;1.15;;;7.90;99.90;;;;;;4987531;28;20392;-66
2022/04/08 01:18:34;;;;;;;10.95;1.50;;;7.90;99.90;;;;;;4986636;28;20139;-67
2022/04/08 01:21:07;;;;;;;2.53;0.73;;;7.90;99.90;;;;;;4987788;28;20121;-67
2022/04/08 01:23:36;;;;;;;6.68;0.85;;;7.90;99.90;;;;;;4986248;28;20371;-67
2022/04/08 01:26:11;;;;;;;6.80;1.08;;;7.80;99.90;;;;;;4987907;28;20058;-65
2022/04/08 01:28:38;;;;;;;7.22;1.30;;;7.90;99.90;;;;;;4980702;28;20464;-67
2022/04/08 01:31:04;;;;;;;7.18;1.30;;;7.90;99.90;;;;;;4988915;28;20085;-66
2022/04/08 01:33:30;;;;;;;7.18;1.17;;;7.90;99.90;;;;;;4986451;28;20026;-66
2022/04/08 01:35:55;;;;;;;3.50;0.70;;;7.90;99.90;;;;;;4989614;28;20533;-67
2022/04/08 01:38:21;;;;;;;3.80;0.65;;;7.80;99.90;;;;;;4990237;28;20080;-67
2022/04/08 01:40:46;;;;;;;5.57;0.80;;;7.80;99.90;;;;;;4993059;28;20025;-67
2022/04/08 01:43:12;;;;;;;4.63;0.82;;;7.80;99.90;;;;;;4989870;28;20055;-67
2022/04/08 01:45:38;;;;;;;4.63;0.70;;;7.80;99.90;;;;;;4992825;28;20168;-67
2022/04/08 01:48:04;;;;;;;9.88;1.08;;;7.80;99.90;;;;;;4991791;28;20026;-67
2022/04/08 01:50:30;;;;;;;6.30;1.13;;;7.80;99.90;;;;;;4990212;28;20034;-67
2022/04/08 01:52:55;;;;;;;7.93;1.20;;;7.80;99.90;;;;;;4991605;28;20042;-66
2022/04/08 01:55:21;;;;;;;4.90;0.98;;;7.80;99.90;;;;;;4990636;28;20049;-67
2022/04/08 01:57:47;;;;;;;11.90;2.00;;;7.80;99.90;;;;;;4991871;28;20037;-67
2022/04/08 02:00:13;;;;;;;9.63;1.23;;;7.70;99.90;;;;;;4990955;28;20102;-66
2022/04/08 02:02:40;;;;;;;3.28;0.98;;;7.80;99.90;;;;;;4991496;28;20483;-67
2022/04/08 02:05:06;;;;;;;8.02;1.42;;;7.80;99.90;;;;;;4989620;28;20035;-65
2022/04/08 02:07:31;;;;;;;4.57;0.80;;;7.80;99.90;;;;;;4989516;28;20034;-67
2022/04/08 02:09:57;;;;;;;4.85;1.10;;;7.80;99.90;;;;;;4991625;28;20038;-67
2022/04/08 02:12:23;;;;;;;9.70;1.17;;;7.70;99.90;;;;;;4989196;28;20031;-67
2022/04/08 02:14:49;;;;;;;4.57;1.02;;;7.70;99.90;;;;;;4991328;28;20133;-68
2022/04/08 02:17:14;;;;;;;6.10;1.13;;;7.70;99.90;;;;;;4989557;28;20113;-67
2022/04/08 02:19:40;;;;;;;4.75;1.02;;;7.70;99.90;;;;;;4990930;28;20089;-67
2022/04/08 02:22:07;;;;;;;4.07;1.20;;;7.70;99.90;;;;;;4990961;28;20499;-67
2022/04/08 02:24:33;;;;;;;9.75;1.27;;;7.70;99.90;;;;;;4990729;28;20030;-67
2022/04/08 02:26:59;;;;;;;5.68;1.17;;;7.60;99.90;;;;;;4990777;28;20069;-67
2022/04/08 02:29:26;;;;;;;7.47;1.10;;;7.60;99.90;;;;;;4987312;28;20066;-67
2022/04/08 02:31:54;;;;;;;5.18;1.75;;;7.60;99.90;;;;;;4990623;28;20038;-67
2022/04/08 02:34:19;;;;;;;7.85;1.00;;;7.60;99.90;;;;;;4991282;28;20034;-66
2022/04/08 02:36:45;;;;;;;6.35;1.20;;;7.60;99.90;;;;;;4984137;28;20026;-67
2022/04/08 02:39:12;;;;;;;5.85;1.05;;;7.60;99.90;;;;;;4988739;28;20513;-66
2022/04/08 02:41:37;;;;;;;9.13;1.63;;;7.60;99.90;;;;;;4989950;28;20483;-67
2022/04/08 02:44:03;;;;;;;16.40;1.60;;;7.60;99.90;;;;;;4991385;28;20105;-67
2022/04/08 02:46:29;;;;;;;2.78;0.98;;;7.60;99.90;;;;;;4987504;28;20641;-67
2022/04/08 02:48:55;;;;;;;4.90;1.08;;;7.60;99.90;;;;;;4991094;28;20038;-67
2022/04/08 02:51:21;;;;;;;7.40;1.52;;;7.60;99.90;;;;;;4988353;28;20074;-67
2022/04/08 02:53:46;;;;;;;6.97;0.93;;;7.50;99.90;;;;;;4991409;28;20042;-68
2022/04/08 02:56:12;;;;;;;8.23;1.65;;;7.50;99.90;;;;;;4988969;28;20356;-65
2022/04/08 02:58:38;;;;;;;6.30;1.40;;;7.40;99.90;;;;;;4990127;28;20057;-67
2022/04/08 03:01:04;;;;;;;6.75;1.20;;;7.30;99.90;;;;;;4990660;28;20796;-67
2022/04/08 03:03:30;;;;;;;10.98;1.35;;;7.30;99.90;;;;;;4988939;28;20073;-66
2022/04/08 03:05:57;;;;;;;6.55;1.48;;;7.30;99.90;;;;;;4989004;28;20101;-67
2022/04/08 03:08:23;;;;;;;4.53;1.20;;;7.20;99.90;;;;;;4988561;28;20034;-67
2022/04/08 03:10:49;;;;;;;6.05;1.33;;;7.30;99.90;;;;;;4981041;28;20108;-66
2022/04/08 03:13:16;;;;;;;11.25;1.85;;;7.30;99.90;;;;;;4987884;28;20046;-67
2022/04/08 03:15:41;;;;;;;3.95;1.20;;;7.30;99.90;;;;;;4988213;28;20112;-67
2022/04/08 03:18:07;;;;;;;8.15;1.40;;;7.30;99.90;;;;;;4990061;28;20527;-67
2022/04/08 03:20:33;;;;;;;10.95;1.23;;;7.20;99.90;;;;;;4989132;28;20022;-66
2022/04/08 03:22:58;;;;;;;9.05;1.77;;;7.20;99.90;;;;;;4988823;28;20041;-67
2022/04/08 03:25:24;;;;;;;5.22;1.25;;;7.10;99.90;;;;;;4986623;28;20057;-67
2022/04/08 03:27:50;;;;;;;4.80;1.00;;;7.10;99.90;;;;;;4988965;28;20034;-67
2022/04/08 03:30:15;;;;;;;7.10;1.42;;;7.10;99.90;;;;;;4990386;28;20497;-67
2022/04/08 03:32:41;;;;;;;6.55;1.02;;;7.20;99.90;;;;;;4989279;28;20089;-67
2022/04/08 03:35:07;;;;;;;5.43;1.05;;;7.20;99.90;;;;;;4989112;28;20032;-66
2022/04/08 03:37:33;;;;;;;9.25;1.30;;;7.20;99.90;;;;;;4984801;28;20118;-67
2022/04/08 03:39:58;;;;;;;6.82;1.20;;;7.20;99.90;;;;;;4988910;28;20109;-67
2022/04/08 03:42:25;;;;;;;6.68;1.27;;;7.10;99.90;;;;;;4990029;28;20046;-67
2022/04/08 03:44:51;;;;;;;5.25;1.08;;;7.10;99.90;;;;;;4988719;28;20050;-67
2022/04/08 03:47:18;;;;;;;8.27;1.30;;;7.10;99.90;;;;;;4989380;28;20026;-67
2022/04/08 03:49:44;;;;;;;4.45;1.20;;;7.10;99.90;;;;;;4985559;28;20030;-67
2022/04/08 03:52:10;;;;;;;8.43;1.10;;;7.00;99.90;;;;;;4987496;28;20034;-67
2022/04/08 03:54:38;;;;;;;4.15;1.10;;;7.10;99.90;;;;;;4984345;28;20049;-66
2022/04/08 03:57:05;;;;;;;4.55;1.30;;;7.10;99.90;;;;;;4982712;28;20030;-67
2022/04/08 03:59:30;;;;;;;4.88;1.10;;;7.10;99.90;;;;;;4989313;28;20030;-66
2022/04/08 04:01:56;;;;;;;4.65;1.33;;;7.00;99.90;;;;;;4987791;28;20065;-66
2022/04/08 04:04:23;;;;;;;9.20;1.05;;;7.00;99.90;;;;;;4988434;28;20031;-65
2022/04/08 04:06:50;;;;;;;3.53;0.98;;;7.00;99.90;;;;;;4989237;28;20038;-67
2022/04/08 04:09:16;;;;;;;5.65;0.95;;;7.00;99.90;;;;;;4988718;28;20034;-65
2022/04/08 04:11:42;;;;;;;7.18;1.98;;;7.10;99.90;;;;;;4988682;28;20041;-64
2022/04/08 04:14:07;;;;;;;6.28;1.20;;;7.00;99.90;;;;;;4989201;28;20038;-65
2022/04/08 04:16:34;;;;;;;8.48;1.20;;;7.00;99.90;;;;;;4988749;28;20056;-64
2022/04/08 04:19:00;;;;;;;8.45;1.55;;;7.00;99.90;;;;;;4988355;28;20070;-64
2022/04/08 04:21:26;;;;;;;10.75;1.23;;;6.90;99.90;;;;;;4988759;28;20117;-65
2022/04/08 04:23:52;;;;;;;6.38;1.08;;;6.90;99.90;;;;;;4988769;28;20739;-65
2022/04/08 04:26:17;;;;;;;12.93;1.88;;;6.90;99.90;;;;;;4987977;28;20102;-63
2022/04/08 04:28:43;;;;;;;10.88;1.33;;;6.90;99.90;;;;;;4987606;28;20081;-65
2022/04/08 04:31:09;;;;;;;5.43;1.27;;;6.80;99.90;;;;;;4989916;28;20065;-64
2022/04/08 04:33:34;;;;;;;8.23;1.80;;;6.90;99.90;;;;;;4987079;28;20109;-64
2022/04/08 04:36:01;;;;;;;5.15;1.45;;;6.90;99.90;;;;;;4989676;28;20039;-67
2022/04/08 04:38:26;;;;;;;5.63;1.80;;;6.90;99.90;;;;;;4987133;28;20040;-65
2022/04/08 04:40:52;;;;;;;6.43;1.13;;;6.90;99.90;;;;;;4989441;28;20030;-65
2022/04/08 04:43:18;;;;;;;9.85;1.83;;;6.90;99.90;;;;;;4986770;28;20085;-66
2022/04/08 04:45:44;;;;;;;5.68;1.10;;;6.90;99.90;;;;;;4988531;28;20487;-65
2022/04/08 04:48:11;;;;;;;6.78;1.20;;;6.90;99.90;;;;;;4986157;28;20486;-66
2022/04/08 04:50:38;;;;;;;2.65;0.90;;;6.90;99.90;;;;;;4988007;28;20023;-65
2022/04/08 04:53:04;;;;;;;5.28;1.10;;;7.00;99.90;;;;;;4988936;28;20030;-66
2022/04/08 04:55:29;;;;;;;3.50;0.68;;;7.00;99.90;;;;;;4987512;28;20070;-64
2022/04/08 04:57:56;;;;;;;8.50;1.00;;;6.90;99.90;;;;;;4988156;28;20069;-64
2022/04/08 05:00:22;;;;;;;13.18;1.50;;;7.00;99.90;;;;;;4986555;28;20034;-66
2022/04/08 05:02:48;;;;;;;3.88;0.77;;;6.90;99.90;;;;;;4989289;28;20026;-67
2022/04/08 05:05:14;;;;;;;7.22;1.60;;;6.90;99.90;;;;;;4988114;28;20077;-63
2022/04/08 05:07:40;;;;;;;9.35;1.08;;;7.00;99.90;;;;;;4987635;28;20094;-64
2022/04/08 05:10:07;;;;;;;10.77;1.58;;;7.00;99.90;;;;;;4988147;28;20141;-64
2022/04/08 05:12:35;;;;;;;12.20;1.60;;;6.90;99.90;;;;;;4986640;28;20038;-64
2022/04/08 05:15:06;;;;;;;6.32;1.55;;;6.90;99.90;;;;;;4986563;28;20050;-65
2022/04/08 05:17:35;;;;;;;5.30;0.90;;;6.90;99.90;;;;;;4987643;28;20034;-66
2022/04/08 05:20:01;;;;;;;7.50;1.02;;;6.90;99.90;;;;;;4987764;28;20044;-65
2022/04/08 05:22:27;;;;;;;3.47;1.15;;;7.00;99.90;;;;;;4988532;28;20407;-65
2022/04/08 05:24:52;;;;;;;7.43;1.00;;;7.00;99.90;;;;;;4987379;28;20534;-66
2022/04/08 05:27:18;;;;;;;4.22;1.20;;;6.90;99.90;;;;;;4987676;28;20034;-65
2022/04/08 05:29:44;;;;;;;5.70;0.98;;;6.90;99.90;;;;;;4987154;28;20132;-65
2022/04/08 05:32:09;;;;;;;9.35;1.27;;;6.90;99.90;;;;;;4988648;28;20026;-66
2022/04/08 05:34:35;;;;;;;8.30;1.02;;;6.90;99.90;;;;;;4985647;28;20475;-66
2022/04/08 05:37:01;;;;;;;7.63;0.95;;;6.90;99.90;;;;;;4986392;28;20472;-67
2022/04/08 05:39:26;;;;;;;7.03;1.33;;;6.90;99.90;;;;;;4988074;28;20580;-66
2022/04/08 05:41:52;;;;;;;11.35;1.58;;;6.90;99.90;;;;;;4987016;28;20383;-66
2022/04/08 05:44:17;;;;;;;13.95;1.40;;;6.90;99.90;;;;;;4988035;28;20079;-66
2022/04/08 05:46:44;;;;;;;8.60;1.75;;;6.90;99.90;;;;;;4985939;28;20069;-64
2022/04/08 05:49:10;;;;;;;10.90;1.35;;;6.90;99.90;;;;;;4986127;28;20030;-65
2022/04/08 05:51:35;;;;;;;8.45;1.10;;;6.90;99.90;;;;;;4984114;28;20049;-65
2022/04/08 05:54:01;;;;;;;5.45;1.60;;;6.90;99.90;;;;;;4987854;28;20395;-66
2022/04/08 05:56:27;;;;;;;10.88;1.58;;;6.90;99.90;;;;;;4986673;28;20452;-65
2022/04/08 05:58:52;;;;;;;10.43;1.45;;;6.90;99.90;;;;;;4988288;28;20537;-66
2022/04/08 06:01:18;;;;;;;9.02;1.92;;;6.90;99.90;;;;;;4987794;28;20049;-65
2022/04/08 06:03:44;;;;;;;5.90;1.88;;;6.90;99.90;;;;;;4986366;28;20026;-66
2022/04/08 06:06:10;;;;;;;10.80;1.55;;;7.00;99.90;;;;;;4986240;28;20391;-66
2022/04/08 06:08:37;;;;;;;10.80;1.48;;;7.00;99.90;;;;;;4985775;28;20034;-66
2022/04/08 06:11:02;;;;;;;9.02;1.40;;;7.00;99.90;;;;;;4985629;28;20054;-66
2022/04/08 06:13:28;;;;;;;7.75;1.42;;;7.00;99.90;;;;;;4970337;28;20124;-65
2022/04/08 06:15:55;;;;;;;10.07;1.83;;;7.10;99.90;;;;;;4986690;28;20088;-67
2022/04/08 06:18:20;;;;;;;11.82;1.73;;;7.10;99.90;;;;;;4982954;28;20121;-64
2022/04/08 06:20:46;;;;;;;7.95;1.88;;;7.10;99.90;;;;;;4986211;28;20386;-66
2022/04/08 06:23:12;;;;;;;12.95;1.73;;;7.10;99.90;;;;;;4988769;28;20110;-66
2022/04/08 06:25:38;;;;;;;14.13;1.95;;;7.10;99.90;;;;;;4987294;28;20165;-66
2022/04/08 06:28:05;;;;;;;13.98;1.73;;;7.10;99.90;;;;;;4990690;28;20471;-66
2022/04/08 06:30:36;;;;;;;6.30;1.20;;;7.10;99.90;;;;;;4989997;28;20030;-66
2022/04/08 06:33:03;;;;;;;;;;;7.10;99.90;;;;;;4991518;28;20050;-66
2022/04/08 06:35:28;;;;;;;9.70;1.27;;;7.10;99.90;;;;;;4988918;28;19917;-68
2022/04/08 06:38:05;;;;;;;11.93;1.77;;;7.10;99.90;;;;;;4991631;28;20038;-66
2022/04/08 06:40:40;;;;;;;8.35;1.20;;;7.20;99.90;;;;;;4989179;28;20031;-69
2022/04/08 06:43:07;;;;;;;8.23;1.67;;;7.20;99.90;;;;;;4984408;28;20081;-67
2022/04/08 06:45:33;;;;;;;8.40;1.40;;;7.20;99.90;;;;;;4988511;28;20038;-70
2022/04/08 06:47:59;;;;;;;6.78;1.55;;;7.10;99.90;;;;;;4987497;28;20026;-67
2022/04/08 06:50:29;;;;;;;13.80;1.83;;;7.10;99.90;;;;;;4989981;28;20034;-65
2022/04/08 06:53:00;;;;;;;10.30;1.23;;;7.10;99.90;;;;;;4991612;28;20034;-66
2022/04/08 06:55:30;;;;;;;11.07;1.60;;;7.00;99.90;;;;;;4990271;28;20038;-67
2022/04/08 06:57:58;;;;;;;4.13;1.45;;;7.00;99.90;;;;;;4987516;28;20110;-68
2022/04/08 07:00:24;;;;;;;9.52;1.27;;;7.00;99.90;;;;;;4980552;28;20030;-67
2022/04/08 07:02:50;;;;;;;9.75;2.05;;;7.10;99.90;;;;;;4991284;28;20482;-66
2022/04/08 07:05:16;;;;;;;7.40;1.60;;;7.10;99.90;;;;;;4989773;28;20054;-66
2022/04/08 07:07:45;;;;;;;10.80;1.55;;;7.10;99.90;;;;;;4989168;28;20066;-66
2022/04/08 07:10:11;;;;;;;13.57;2.42;;;7.10;99.90;;;;;;4990201;28;20038;-66
2022/04/08 07:12:37;;;;;;;6.53;1.02;;;7.10;99.90;;;;;;4987947;28;20026;-65
2022/04/08 07:15:04;;;;;;;4.47;1.25;;;7.10;99.90;;;;;;4991230;28;20081;-65
2022/04/08 07:17:35;;;;;;;10.85;2.05;;;7.10;99.90;;;;;;4989212;28;20041;-65
2022/04/08 07:20:01;;;;;;;5.68;1.40;;;7.10;99.90;;;;;;4989935;28;20120;-67
2022/04/08 07:22:27;;;;;;;4.95;0.95;;;7.10;99.90;;;;;;4988635;28;20038;-64
2022/04/08 07:24:53;;;;;;;10.45;1.70;;;7.00;99.90;;;;;;4977436;28;20031;-66
2022/04/08 07:27:20;;;;;;;7.40;1.23;;;6.90;99.90;;;;;;4987063;28;20038;-66
2022/04/08 07:29:46;;;;;;;7.40;1.23;;;6.90;99.90;;;;;;4989609;28;20022;-66
2022/04/08 07:32:12;;;;;;;4.07;1.30;;;6.90;99.90;;;;;;4989230;28;20093;-66
2022/04/08 07:34:38;;;;;;;6.55;1.10;;;6.80;99.90;;;;;;4989428;28;20434;-67
2022/04/08 07:37:05;;;;;;;6.15;1.30;;;6.80;99.90;;;;;;4988796;28;20031;-66
2022/04/08 07:39:31;;;;;;;8.80;1.08;;;6.80;99.90;;;;;;4988127;28;20038;-67
2022/04/08 07:41:57;;;;;;;3.83;0.90;;;6.70;99.90;;;;;;4988608;28;20487;-67
2022/04/08 07:44:23;;;;;;;4.13;1.10;;;6.50;99.90;;;;;;4989405;28;20125;-64
2022/04/08 07:46:48;;;;;;;8.00;1.50;;;6.40;99.90;;;;;;4989393;28;20093;-63
2022/04/08 07:49:14;;;;;;;6.65;1.20;;;6.40;99.90;;;;;;4984708;28;20035;-63
2022/04/08 07:51:41;;;;;;;4.53;1.27;;;6.30;99.90;;;;;;4986586;28;20080;-63
2022/04/08 07:54:08;;;;;;;6.53;1.80;;;6.30;99.90;;;;;;4989566;28;20416;-66
2022/04/08 07:56:35;;;;;;;4.15;1.23;;;6.20;99.90;;;;;;4988142;28;20026;-64
2022/04/08 07:59:02;;;;;;;8.32;1.20;;;6.20;99.90;;;;;;4990315;28;20207;-64
2022/04/08 08:01:28;;;;;;;4.65;1.38;;;6.20;99.90;;;;;;4986574;28;20037;-64
2022/04/08 08:03:54;;;;;;;3.88;1.25;;;6.20;99.90;;;;;;4981869;28;20042;-64
2022/04/08 08:06:20;;;;;;;6.63;1.10;;;6.10;99.90;;;;;;4986592;28;20035;-66
2022/04/08 08:08:46;;;;;;;5.85;1.67;;;6.10;99.90;;;;;;4986592;28;20448;-65
2022/04/08 08:11:13;;;;;;;4.65;1.10;;;6.00;99.90;;;;;;4988191;28;20072;-64
2022/04/08 08:13:39;;;;;;;4.95;1.15;;;6.10;99.90;;;;;;4987018;28;20531;-64
2022/04/08 08:16:07;;;;;;;3.35;1.08;;;6.10;99.90;;;;;;5000840;28;20129;-64
2022/04/08 08:18:34;;;;;;;3.35;0.80;;;6.00;99.90;;;;;;4986979;28;20030;-63
2022/04/08 08:20:59;;;;;;;7.50;1.25;;;6.00;99.90;;;;;;4987618;28;20042;-63
2022/04/08 08:23:25;;;;;;;3.65;1.30;;;6.00;99.90;;;;;;4981221;28;20030;-63
2022/04/08 08:25:51;;;;;;;2.67;1.00;;;6.10;99.90;;;;;;4984353;28;20384;-63
2022/04/08 08:28:17;;;;;;;4.28;1.33;;;6.00;99.90;;;;;;4987087;28;20033;-64
2022/04/08 08:30:44;;;;;;;4.85;1.23;;;6.20;99.90;;;;;;4984879;28;20495;-65
2022/04/08 08:33:10;;;;;;;3.30;1.13;;;6.30;99.90;;;;;;4988641;28;20070;-63
2022/04/08 08:35:36;;;;;;;5.07;2.38;;;6.30;99.90;;;;;;4988266;28;20116;-65
2022/04/08 08:38:03;;;;;;;3.33;1.30;;;6.40;99.90;;;;;;4987522;28;20053;-64
2022/04/08 08:40:33;;;;;;;4.90;1.10;;;6.50;99.90;;;;;;4989603;28;20033;-63
2022/04/08 08:43:00;;;;;;;3.20;1.13;;;6.50;99.90;;;;;;4987931;28;20042;-66
2022/04/08 08:45:32;;;;;;;8.00;1.10;;;6.60;99.90;;;;;;4986808;28;20042;-64
2022/04/08 08:48:02;;;;;;;2.05;1.10;;;6.60;99.90;;;;;;4987523;28;20721;-65
2022/04/08 08:50:29;;;;;;;3.95;0.82;;;6.60;99.90;;;;;;4989249;28;20022;-65
2022/04/08 08:52:55;;;;;;;1.85;0.82;;;6.70;99.90;;;;;;4987589;28;20049;-66
2022/04/08 08:55:21;;;;;;;5.22;0.90;;;6.60;99.90;;;;;;4987009;28;20112;-68
2022/04/08 08:57:48;;;;;;;3.03;0.80;;;6.40;99.90;;;;;;4987362;28;20033;-65
2022/04/08 09:00:16;;;;;;;4.78;1.27;;;6.40;99.90;;;;;;4988995;28;20038;-67
2022/04/08 09:02:48;;;;;;;2.67;0.80;;;6.50;99.90;;;;;;4987318;28;20030;-65
2022/04/08 09:05:19;;;;;;;5.57;0.88;;;6.40;99.90;;;;;;4985512;28;20038;-66
2022/04/08 09:07:58;;;;;;;5.65;0.98;;;6.50;99.90;;;;;;4987412;28;20043;-66
2022/04/08 09:10:37;;;;;;;3.20;0.95;;;6.40;99.90;;;;;;4986898;28;20113;-65
2022/04/08 09:13:05;;;;;;;3.85;0.77;;;6.50;99.90;;;;;;4988083;28;20034;-65
2022/04/08 09:15:31;;;;;;;3.38;1.05;;;6.50;99.90;;;;;;4987627;28;20073;-65
2022/04/08 09:18:14;;;;;;;4.10;1.10;;;6.60;99.90;;;;;;4987884;28;20058;-65
2022/04/08 09:20:44;;;;;;;4.80;1.40;;;6.60;99.90;;;;;;4978640;28;20031;-67
2022/04/08 09:23:10;;;;;;;6.20;1.40;;;6.50;99.90;;;;;;4987702;28;20193;-66
2022/04/08 09:25:37;;;;;;;1.98;1.15;;;6.40;99.90;;;;;;4984879;28;20121;-65
2022/04/08 09:28:13;;;;;;;2.00;1.10;;;6.40;99.90;;;;;;4988392;28;20494;-64
2022/04/08 09:30:40;;;;;;;2.75;0.98;;;6.40;99.90;;;;;;4986082;28;20426;-63
2022/04/08 09:33:20;;;;;;;3.05;1.10;;;6.40;99.90;;;;;;4987685;28;20116;-62
2022/04/08 09:35:48;;;;;;;4.18;1.30;;;6.40;99.90;;;;;;4985703;28;20039;-64
2022/04/08 09:38:19;;;;;;;3.60;1.23;;;6.50;99.90;;;;;;4989172;28;20034;-64
2022/04/08 09:40:44;;;;;;;3.40;1.08;;;6.50;99.90;;;;;;4985440;28;20030;-62
2022/04/08 09:43:10;;;;;;;2.50;1.00;;;6.60;99.90;;;;;;4988663;28;20472;-63
2022/04/08 09:45:38;;;;;;;2.85;1.40;;;6.70;99.90;;;;;;4985899;28;20069;-64
2022/04/08 09:48:06;;;;;;;4.05;1.20;;;6.80;99.90;;;;;;4988954;28;20475;-65
2022/04/08 09:50:33;;;;;;;2.42;1.15;;;6.70;99.90;;;;;;4986264;28;20030;-63
2022/04/08 09:53:02;;;;;;;4.28;1.02;;;6.60;99.90;;;;;;4988144;28;20098;-64
2022/04/08 09:55:29;;;;;;;2.90;0.90;;;6.60;99.90;;;;;;4986620;28;20041;-63
2022/04/08 09:58:02;;;;;;;1.63;1.00;;;6.50;99.90;;;;;;4985212;28;20022;-65
2022/04/08 10:00:28;;;;;;;1.95;1.15;;;6.50;99.90;;;;;;4991771;28;20022;-65
2022/04/08 10:02:55;;;;;;;2.15;0.85;;;6.40;99.90;;;;;;4991624;28;20026;-64
2022/04/08 10:05:25;;;;;;;2.25;1.20;;;6.40;99.90;;;;;;4990031;28;20034;-66
2022/04/08 10:07:52;;;;;;;4.95;0.90;;;6.40;99.90;;;;;;4990332;28;20062;-66
2022/04/08 10:10:38;;;;;;;2.97;1.08;;;6.50;99.90;;;;;;4992088;28;20053;-65
2022/04/08 10:13:03;;;;;;;2.85;0.95;;;6.50;99.90;;;;;;4987310;28;20027;-66
2022/04/08 10:15:45;;;;;;;1.77;0.88;;;6.60;99.90;;;;;;4991698;28;20049;-66
2022/04/08 10:18:11;;;;;;;4.28;0.80;;;6.50;99.90;;;;;;4991858;28;20039;-66
2022/04/08 10:20:38;;;;;;;5.50;0.95;;;6.50;99.90;;;;;;4989397;28;20018;-64
2022/04/08 10:23:11;;;;;;;1.55;0.60;;;6.50;99.90;;;;;;4989462;28;20039;-63
2022/04/08 10:25:42;;;;;;;2.17;1.20;;;6.60;99.90;;;;;;4990997;28;20543;-62
2022/04/08 10:28:10;;;;;;;2.38;0.80;;;6.60;99.90;;;;;;4989120;28;20027;-62
2022/04/08 10:30:47;;;;;;;1.98;0.98;;;6.60;99.90;;;;;;4989966;28;20398;-62
2022/04/08 10:33:24;;;;;;;2.20;1.20;;;6.60;99.90;;;;;;4985886;28;20376;-62
2022/04/08 10:36:01;;;;;;;1.52;0.70;;;6.60;99.90;;;;;;4990064;28;20033;-62
2022/04/08 10:38:38;;;;;;;1.92;1.05;;;6.60;99.90;;;;;;4991148;28;20546;-62
2022/04/08 10:41:09;;;;;;;2.28;0.85;;;6.60;99.90;;;;;;4987847;28;20084;-62
2022/04/08 10:43:45;;;;;;;3.55;0.77;;;6.60;99.90;;;;;;4989608;28;20471;-62
2022/04/08 10:46:11;;;;;;;2.63;1.00;;;6.70;99.90;;;;;;4989000;28;20042;-62
2022/04/08 10:48:37;;;;;;;1.50;0.82;;;6.70;99.90;;;;;;4990463;28;20435;-63
2022/04/08 10:51:14;;;;;;;3.45;1.27;;;6.70;99.90;;;;;;4991403;28;20118;-62
2022/04/08 10:53:43;;;;;;;2.58;0.98;;;6.80;99.90;;;;;;4989685;28;20044;-62
2022/04/08 10:56:14;;;;;;;3.30;1.40;;;6.80;99.90;;;;;;4991335;28;20026;-63
2022/04/08 10:58:46;;;;;;;2.78;0.73;;;6.70;99.90;;;;;;4989082;28;20479;-62
2022/04/08 11:01:27;;;;;;;20.00;6.13;;;6.80;99.90;;;;;;4991620;28;20081;-63
2022/04/08 11:04:00;;;;;;;34.85;9.05;;;6.80;99.90;;;;;;4988923;28;20038;-63
2022/04/08 11:06:36;;;;;;;10.45;3.67;;;6.90;99.90;;;;;;4982671;28;20049;-63
2022/04/08 11:09:06;;;;;;;4.57;1.60;;;6.90;99.90;;;;;;4988340;28;20046;-64
2022/04/08 11:11:37;;;;;;;2.33;1.20;;;6.90;99.90;;;;;;4989579;28;20387;-64
2022/04/08 11:14:04;;;;;;;2.20;0.60;;;6.90;99.90;;;;;;4990287;28;20030;-64
2022/04/08 11:16:35;;;;;;;1.30;0.65;;;7.10;99.90;;;;;;4990914;28;20041;-64
2022/04/08 11:19:12;;;;;;;2.05;1.58;;;7.00;99.90;;;;;;4990777;28;20483;-64
2022/04/08 11:21:39;;;;;;;5.93;1.98;;;7.10;99.90;;;;;;4988479;28;21423;-63
2022/04/08 11:24:10;;;;;;;4.03;2.25;;;7.20;99.90;;;;;;4989653;28;20034;-64
2022/04/08 11:26:50;;;;;;;3.40;1.65;;;7.10;99.90;;;;;;4989122;28;20046;-64
2022/04/08 11:29:24;;;;;;;1.02;0.60;;;7.10;99.90;;;;;;4988949;28;20129;-63
2022/04/08 11:31:52;;;;;;;6.35;2.78;;;6.90;99.90;;;;;;4987729;28;20509;-64
2022/04/08 11:34:23;;;;;;;3.95;2.10;;;6.80;99.90;;;;;;4990972;28;20045;-64
2022/04/08 11:36:51;;;;;;;3.35;1.98;;;6.70;99.90;;;;;;4987095;28;20030;-64
2022/04/08 11:39:21;;;;;;;3.50;1.58;;;6.60;99.90;;;;;;4986314;28;20039;-63
2022/04/08 11:41:53;;;;;;;9.63;3.83;;;6.70;99.90;;;;;;4985782;28;20037;-63
2022/04/08 11:44:19;;;;;;;25.15;8.50;;;6.70;99.90;;;;;;4986368;28;20058;-63
2022/04/08 11:46:45;;;;;;;13.40;4.05;;;6.80;99.90;;;;;;4988244;28;20111;-62
2022/04/08 11:49:14;;;;;;;9.60;4.90;;;6.70;99.90;;;;;;4988237;28;20467;-63
2022/04/08 11:51:40;;;;;;;17.00;6.60;;;6.70;99.90;;;;;;4988010;28;20026;-63
2022/04/08 11:54:05;;;;;;;15.00;6.22;;;6.70;99.90;;;;;;4984699;28;20030;-63
2022/04/08 11:56:32;;;;;;;9.20;2.92;;;6.70;99.90;;;;;;4988924;28;20415;-63
2022/04/08 11:58:59;;;;;;;20.27;7.18;;;6.70;99.90;;;;;;4988196;28;20034;-63
2022/04/08 12:01:33;;;;;;;11.70;4.30;;;6.60;99.90;;;;;;4990030;28;20088;-64
2022/04/08 12:04:01;;;;;;;10.23;3.92;;;6.60;99.90;;;;;;4985712;28;20057;-63
2022/04/08 12:06:47;;;;;;;4.82;2.00;;;6.50;99.90;;;;;;4962023;28;20042;-63
2022/04/08 12:09:15;;;;;;;2.65;1.30;;;6.60;99.90;;;;;;4987944;28;20111;-64
2022/04/08 12:11:42;;;;;;;3.70;2.10;;;6.50;99.90;;;;;;4990169;28;20030;-63
2022/04/08 12:14:10;;;;;;;17.42;5.63;;;6.30;99.90;;;;;;4989112;28;20038;-63
2022/04/08 12:16:38;;;;;;;3.00;1.67;;;6.20;99.90;;;;;;4989781;28;20054;-63
2022/04/08 12:19:04;;;;;;;4.38;1.35;;;6.20;99.90;;;;;;4987852;28;20638;-63
2022/04/08 12:21:31;;;;;;;2.65;1.30;;;6.20;99.90;;;;;;4986406;28;20094;-63
2022/04/08 12:24:02;;;;;;;4.13;1.27;;;6.20;99.90;;;;;;4989275;28;20061;-63
2022/04/08 12:26:31;;;;;;;13.63;5.95;;;6.20;99.90;;;;;;4987777;28;20081;-63
2022/04/08 12:29:08;;;;;;;17.15;5.47;;;6.30;99.90;;;;;;4988072;28;20061;-63
2022/04/08 12:31:43;;;;;;;11.43;3.42;;;6.30;99.90;;;;;;4985668;28;20026;-62
2022/04/08 12:34:09;;;;;;;17.70;6.40;;;6.20;99.90;;;;;;4983770;28;20388;-63
2022/04/08 12:36:35;;;;;;;7.47;3.40;;;6.10;99.90;;;;;;4988709;28;20034;-62
2022/04/08 12:39:00;;;;;;;27.48;10.55;;;6.10;99.90;;;;;;4986792;28;20066;-63
2022/04/08 12:41:26;;;;;;;22.25;7.38;;;6.20;99.90;;;;;;4988413;28;20037;-63
2022/04/08 12:43:54;;;;;;;19.98;7.63;;;6.30;99.90;;;;;;4986952;28;20782;-63
2022/04/08 12:46:21;;;;;;;8.00;3.58;;;6.30;99.90;;;;;;4988435;28;20153;-63
2022/04/08 12:48:47;;;;;;;19.35;8.63;;;6.20;99.90;;;;;;4987643;28;20456;-63
2022/04/08 12:51:13;;;;;;;10.73;3.88;;;6.20;99.90;;;;;;4980863;28;20025;-63
2022/04/08 12:53:38;;;;;;;12.52;4.60;;;6.20;99.90;;;;;;4989458;28;20430;-64
2022/04/08 12:56:04;;;;;;;9.77;3.42;;;6.10;99.90;;;;;;4987405;28;20038;-63